createdAt,value
2023-03-22T00:01:28.242Z,64.60
2023-03-22T00:03:55.171Z,64.61
2023-03-22T00:06:22.368Z,64.73
2023-03-22T00:08:53.909Z,64.77
2023-03-22T00:11:24.376Z,64.88
2023-03-22T00:13:52.762Z,64.84
2023-03-22T00:16:21.314Z,64.78
2023-03-22T00:18:48.290Z,64.83
2023-03-22T00:21:17.263Z,64.84
2023-03-22T00:23:45.255Z,64.87
2023-03-22T00:26:14.332Z,64.91
2023-03-22T00:28:42.482Z,64.95
2023-03-22T00:31:11.010Z,64.90
2023-03-22T00:33:40.852Z,64.94
2023-03-22T00:36:09.098Z,64.94
2023-03-22T00:38:44.042Z,65.02
2023-03-22T00:41:19.852Z,65.01
2023-03-22T00:43:48.186Z,65.18
2023-03-22T00:46:17.470Z,65.26
2023-03-22T00:48:44.464Z,64.97
2023-03-22T00:51:12.102Z,65.07
2023-03-22T00:53:41.992Z,65.13
2023-03-22T00:56:14.171Z,65.21
2023-03-22T00:59:01.557Z,65.35
2023-03-22T01:01:29.220Z,65.16
2023-03-22T01:03:56.124Z,65.02
2023-03-22T01:06:23.218Z,64.98
2023-03-22T01:08:51.127Z,65.16
2023-03-22T01:11:18.441Z,65.30
2023-03-22T01:13:45.765Z,65.35
2023-03-22T01:16:12.727Z,65.32
2023-03-22T01:18:40.899Z,65.51
2023-03-22T01:21:09.094Z,65.49
2023-03-22T01:23:36.458Z,65.51
2023-03-22T01:26:04.406Z,65.41
2023-03-22T01:28:31.534Z,65.33
2023-03-22T01:31:02.685Z,65.24
2023-03-22T01:33:31.232Z,65.32
2023-03-22T01:35:58.254Z,65.43
2023-03-22T01:38:25.442Z,65.51
2023-03-22T01:40:58.136Z,65.56
2023-03-22T01:43:25.634Z,65.54
2023-03-22T01:45:54.225Z,65.64
2023-03-22T01:48:34.390Z,65.65
2023-03-22T01:51:07.995Z,65.74
2023-03-22T01:54:05.942Z,65.77
2023-03-22T01:56:36.610Z,65.83
2023-03-22T01:59:07.904Z,65.75
2023-03-22T02:01:49.716Z,65.76
2023-03-22T02:04:20.349Z,65.88
2023-03-22T02:06:48.504Z,66.04
2023-03-22T02:09:18.390Z,65.92
2023-03-22T02:11:57.739Z,66.09
2023-03-22T02:14:53.612Z,66.03
2023-03-22T02:17:46.590Z,66.03
2023-03-22T02:20:38.866Z,66.05
2023-03-22T02:23:30.964Z,65.98
2023-03-22T02:26:05.547Z,65.99
2023-03-22T02:28:45.823Z,66.04
2023-03-22T02:31:17.933Z,66.13
2023-03-22T02:34:15.753Z,66.32
2023-03-22T02:36:46.127Z,66.33
2023-03-22T02:39:22.551Z,66.35
2023-03-22T02:41:56.251Z,66.31
2023-03-22T02:44:27.156Z,66.32
2023-03-22T02:47:04.284Z,66.42
2023-03-22T02:49:41.376Z,66.36
2023-03-22T02:52:17.705Z,66.34
2023-03-22T02:55:00.238Z,66.47
2023-03-22T02:57:48.593Z,66.65
2023-03-22T03:00:18.928Z,66.64
2023-03-22T03:02:49.382Z,66.67
2023-03-22T03:05:18.340Z,66.59
2023-03-22T03:07:52.468Z,66.59
2023-03-22T03:10:21.394Z,66.76
2023-03-22T03:12:48.431Z,66.79
2023-03-22T03:15:18.802Z,66.73
2023-03-22T03:18:01.497Z,66.59
2023-03-22T03:20:49.641Z,66.67
2023-03-22T03:23:28.797Z,66.71
2023-03-22T03:26:09.583Z,66.78
2023-03-22T03:28:51.154Z,66.82
2023-03-22T03:31:30.243Z,66.86
2023-03-22T03:34:00.518Z,66.94
2023-03-22T03:36:29.658Z,67.05
2023-03-22T03:38:58.548Z,67.04
2023-03-22T03:41:29.594Z,67.07
2023-03-22T03:43:58.695Z,67.04
2023-03-22T03:46:26.338Z,67.06
2023-03-22T03:48:57.568Z,67.04
2023-03-22T03:51:27.793Z,67.07
2023-03-22T03:55:33.963Z,67.10
2023-03-22T03:58:00.908Z,67.20
2023-03-22T04:00:27.804Z,67.24
2023-03-22T04:03:21.024Z,67.21
2023-03-22T04:06:19.909Z,67.26
2023-03-22T04:08:53.681Z,67.28
2023-03-22T04:11:24.001Z,67.31
2023-03-22T04:13:52.603Z,67.52
2023-03-22T04:16:21.178Z,67.51
2023-03-22T04:18:48.887Z,67.41
2023-03-22T04:21:16.670Z,67.42
2023-03-22T04:23:52.288Z,67.51
2023-03-22T04:26:19.152Z,67.47
2023-03-22T04:28:54.338Z,67.54
2023-03-22T04:31:21.321Z,67.52
2023-03-22T04:33:55.975Z,67.51
2023-03-22T04:36:39.732Z,67.47
2023-03-22T04:39:21.677Z,67.53
2023-03-22T04:41:56.852Z,67.63
2023-03-22T04:44:23.890Z,67.60
2023-03-22T04:46:50.888Z,67.51
2023-03-22T04:49:18.006Z,67.62
2023-03-22T04:51:44.860Z,67.66
2023-03-22T04:54:23.654Z,67.74
2023-03-22T04:56:51.268Z,67.83
2023-03-22T04:59:20.486Z,67.81
2023-03-22T05:01:48.908Z,67.74
2023-03-22T05:04:19.664Z,67.79
2023-03-22T05:06:47.172Z,67.88
2023-03-22T05:09:23.336Z,67.92
2023-03-22T05:11:51.308Z,67.89
2023-03-22T05:14:28.361Z,67.82
2023-03-22T05:16:55.714Z,67.95
2023-03-22T05:19:24.699Z,68.18
2023-03-22T05:21:58.302Z,68.08
2023-03-22T05:24:33.815Z,67.93
2023-03-22T05:27:01.270Z,68.04
2023-03-22T05:29:28.856Z,68.13
2023-03-22T05:32:06.565Z,68.13
2023-03-22T05:34:36.077Z,67.94
2023-03-22T05:37:22.454Z,67.98
2023-03-22T05:39:53.117Z,68.01
2023-03-22T05:42:20.891Z,68.07
2023-03-22T05:44:47.848Z,68.11
2023-03-22T05:47:14.820Z,68.13
2023-03-22T05:49:53.720Z,68.23
2023-03-22T05:52:22.398Z,68.32
2023-03-22T05:55:13.864Z,68.38
2023-03-22T05:57:41.480Z,68.42
2023-03-22T06:00:16.434Z,68.37
2023-03-22T06:03:03.541Z,68.48
2023-03-22T06:05:32.531Z,68.52
2023-03-22T06:07:59.962Z,68.46
2023-03-22T06:10:29.454Z,68.46
2023-03-22T06:12:56.509Z,68.44
2023-03-22T06:15:29.145Z,68.41
2023-03-22T06:17:58.949Z,68.40
2023-03-22T06:20:27.504Z,68.47
2023-03-22T06:22:59.774Z,68.46
2023-03-22T06:25:27.168Z,68.51
2023-03-22T06:27:55.142Z,68.62
2023-03-22T06:30:22.605Z,68.69
2023-03-22T06:33:18.770Z,68.77
2023-03-22T06:35:48.328Z,68.84
2023-03-22T06:38:20.404Z,68.86
2023-03-22T06:40:47.525Z,68.97
2023-03-22T06:43:14.405Z,68.80
2023-03-22T06:45:43.660Z,68.47
2023-03-22T06:48:11.658Z,68.56
2023-03-22T06:51:08.297Z,68.88
2023-03-22T06:53:36.719Z,69.12
2023-03-22T06:56:04.598Z,69.12
2023-03-22T06:58:41.798Z,68.97
2023-03-22T07:01:08.753Z,68.83
2023-03-22T07:03:36.384Z,68.44
2023-03-22T07:06:08.950Z,68.93
2023-03-22T07:08:38.641Z,68.40
2023-03-22T07:11:06.837Z,67.68
2023-03-22T07:13:33.969Z,67.46
2023-03-22T07:16:03.811Z,67.20
2023-03-22T07:18:43.574Z,66.41
2023-03-22T07:21:10.656Z,66.51
2023-03-22T07:23:38.758Z,65.78
2023-03-22T07:26:09.555Z,64.67
2023-03-22T07:28:41.627Z,63.94
2023-03-22T07:31:11.769Z,63.95
2023-03-22T07:34:00.380Z,64.67
2023-03-22T07:36:32.809Z,64.31
2023-03-22T07:38:59.873Z,64.18
2023-03-22T07:41:32.946Z,63.75
2023-03-22T07:44:23.192Z,63.50
2023-03-22T07:47:30.592Z,63.32
2023-03-22T07:50:27.930Z,62.30
2023-03-22T07:52:56.353Z,62.17
2023-03-22T07:55:23.474Z,62.33
2023-03-22T07:57:51.484Z,62.43
2023-03-22T08:00:18.838Z,62.00
2023-03-22T08:02:52.386Z,61.30
2023-03-22T08:05:42.220Z,61.29
2023-03-22T08:08:13.740Z,61.33
2023-03-22T08:10:41.132Z,61.71
2023-03-22T08:13:08.177Z,61.30
2023-03-22T08:15:37.625Z,62.14
2023-03-22T08:18:04.905Z,61.59
2023-03-22T08:20:34.780Z,60.81
2023-03-22T08:23:05.847Z,61.29
2023-03-22T08:25:53.134Z,60.93
2023-03-22T08:28:20.456Z,61.02
2023-03-22T08:30:49.226Z,59.86
2023-03-22T08:33:16.549Z,59.37
2023-03-22T08:35:45.503Z,59.98
2023-03-22T08:38:12.651Z,59.29
2023-03-22T08:40:47.981Z,59.60
2023-03-22T08:43:20.752Z,59.18
2023-03-22T08:45:47.818Z,58.28
2023-03-22T08:48:16.490Z,57.55
2023-03-22T08:50:57.741Z,57.37
2023-03-22T08:53:30.945Z,57.03
2023-03-22T08:56:15.010Z,56.46
2023-03-22T08:58:50.089Z,57.28
2023-03-22T09:01:37.461Z,57.20
2023-03-22T09:04:07.093Z,55.78
2023-03-22T09:06:35.815Z,55.39
2023-03-22T09:09:03.627Z,55.38
2023-03-22T09:11:31.364Z,54.76
2023-03-22T09:13:58.220Z,55.11
2023-03-22T09:16:25.123Z,55.13
2023-03-22T09:18:52.056Z,55.22
2023-03-22T09:21:22.192Z,54.13
2023-03-22T09:23:56.862Z,51.68
2023-03-22T09:26:30.054Z,51.83
2023-03-22T09:28:57.063Z,51.84
2023-03-22T09:31:24.052Z,51.96
2023-03-22T09:34:01.017Z,52.04
2023-03-22T09:36:27.980Z,51.97
2023-03-22T09:38:54.887Z,52.11
2023-03-22T09:41:27.824Z,52.50
2023-03-22T09:43:59.852Z,52.83
2023-03-22T09:46:34.529Z,53.03
2023-03-22T09:49:06.281Z,53.48
2023-03-22T09:51:42.630Z,53.59
2023-03-22T09:54:21.668Z,53.73
2023-03-22T09:57:15.883Z,53.69
2023-03-22T10:00:11.865Z,53.83
2023-03-22T10:03:00.836Z,54.14
2023-03-22T10:05:52.940Z,54.36
2023-03-22T10:08:38.504Z,54.27
2023-03-22T10:11:20.637Z,54.28
2023-03-22T10:14:25.481Z,54.62
2023-03-22T10:16:56.642Z,54.66
2023-03-22T10:19:31.785Z,54.63
2023-03-22T10:22:02.396Z,54.45
2023-03-22T10:24:33.726Z,54.58
2023-03-22T10:27:01.603Z,54.69
2023-03-22T10:29:39.823Z,54.64
2023-03-22T10:32:21.107Z,54.94
2023-03-22T10:34:47.980Z,54.97
2023-03-22T10:37:22.602Z,55.02
2023-03-22T10:39:53.966Z,55.12
2023-03-22T10:42:28.153Z,55.07
2023-03-22T10:45:14.790Z,54.99
2023-03-22T10:47:42.642Z,54.67
2023-03-22T10:50:21.422Z,54.40
2023-03-22T10:52:58.041Z,54.64
2023-03-22T10:55:26.112Z,55.01
2023-03-22T10:58:16.060Z,55.32
2023-03-22T11:00:47.544Z,55.03
2023-03-22T11:03:37.913Z,55.14
2023-03-22T11:06:23.524Z,55.36
2023-03-22T11:08:57.502Z,55.19
2023-03-22T11:11:24.421Z,55.13
2023-03-22T11:13:55.817Z,55.38
2023-03-22T11:16:23.644Z,55.21
2023-03-22T11:18:51.044Z,55.23
2023-03-22T11:21:19.912Z,55.16
2023-03-22T11:24:00.864Z,55.44
2023-03-22T11:26:31.808Z,55.46
2023-03-22T11:29:16.707Z,55.13
2023-03-22T11:32:00.568Z,55.25
2023-03-22T11:34:31.000Z,55.24
2023-03-22T11:37:01.626Z,55.25
2023-03-22T11:39:29.860Z,55.12
2023-03-22T11:42:04.159Z,55.44
2023-03-22T11:44:38.376Z,55.27
2023-03-22T11:47:08.504Z,55.19
2023-03-22T11:49:45.653Z,55.26
2023-03-22T11:52:18.472Z,55.61
2023-03-22T11:54:47.101Z,55.76
2023-03-22T11:57:18.713Z,55.78
2023-03-22T12:00:12.041Z,55.85
2023-03-22T12:02:46.701Z,55.73
2023-03-22T12:05:24.537Z,55.47
2023-03-22T12:08:03.835Z,55.53
2023-03-22T12:10:42.829Z,55.87
2023-03-22T12:13:41.956Z,55.95
2023-03-22T12:16:15.112Z,55.88
2023-03-22T12:18:51.511Z,55.98
2023-03-22T12:21:18.439Z,56.05
2023-03-22T12:23:45.964Z,56.10
2023-03-22T12:26:20.735Z,56.15
2023-03-22T12:28:59.735Z,56.03
2023-03-22T12:31:38.297Z,55.89
2023-03-22T12:34:14.662Z,55.92
2023-03-22T12:36:47.170Z,55.90
2023-03-22T12:39:35.065Z,55.86
2023-03-22T12:42:10.997Z,55.66
2023-03-22T12:44:43.282Z,55.88
2023-03-22T12:47:20.830Z,55.70
2023-03-22T12:50:14.245Z,55.53
2023-03-22T12:52:46.115Z,54.96
2023-03-22T12:55:30.973Z,54.83
2023-03-22T12:57:59.263Z,55.11
2023-03-22T13:00:33.420Z,55.10
2023-03-22T13:03:18.953Z,55.17
2023-03-22T13:05:48.645Z,55.06
2023-03-22T13:08:21.862Z,55.20
2023-03-22T13:10:59.166Z,55.34
2023-03-22T13:13:28.002Z,55.13
2023-03-22T13:15:57.953Z,55.37
2023-03-22T13:18:37.966Z,55.52
2023-03-22T13:21:16.709Z,55.23
2023-03-22T13:24:21.157Z,55.46
2023-03-22T13:26:55.608Z,55.47
2023-03-22T13:29:25.866Z,55.40
2023-03-22T13:31:59.225Z,55.59
2023-03-22T13:34:50.734Z,55.45
2023-03-22T13:37:31.855Z,55.21
2023-03-22T13:40:02.311Z,55.44
2023-03-22T13:42:38.295Z,55.53
2023-03-22T13:45:09.537Z,55.54
2023-03-22T13:47:49.776Z,55.68
2023-03-22T13:50:29.763Z,55.59
2023-03-22T13:53:05.096Z,55.73
2023-03-22T13:55:58.871Z,55.71
2023-03-22T13:58:46.814Z,55.77
2023-03-22T14:01:36.599Z,55.82
2023-03-22T14:04:12.563Z,55.71
2023-03-22T14:06:57.578Z,55.82
2023-03-22T14:09:31.467Z,55.71
2023-03-22T14:12:28.671Z,55.81
2023-03-22T14:15:01.047Z,55.85
2023-03-22T14:17:50.715Z,55.88
2023-03-22T14:20:21.170Z,55.87
